createdAt,value
2018-07-08T00:00:28.530Z,96116.00
2018-07-08T00:01:00.565Z,96114.00
2018-07-08T00:01:32.567Z,96114.00
2018-07-08T00:02:04.679Z,96117.00
2018-07-08T00:02:36.698Z,96116.00
2018-07-08T00:03:08.717Z,96117.00
2018-07-08T00:03:40.745Z,96114.00
2018-07-08T00:04:12.777Z,96116.00
2018-07-08T00:04:44.793Z,96118.00
2018-07-08T00:05:16.845Z,96114.00
2018-07-08T00:05:48.885Z,96113.00
2018-07-08T00:06:20.903Z,96115.00
2018-07-08T00:06:52.930Z,96111.00
2018-07-08T00:07:24.931Z,96114.00
2018-07-08T00:07:56.938Z,96114.00
2018-07-08T00:08:28.970Z,96112.00
2018-07-08T00:09:00.993Z,96111.00
2018-07-08T00:09:33.008Z,96111.00
2018-07-08T00:10:05.051Z,96109.00
2018-07-08T00:10:37.070Z,96113.00
2018-07-08T00:11:09.100Z,96109.00
2018-07-08T00:11:41.109Z,96113.00
2018-07-08T00:12:13.120Z,96112.00
2018-07-08T00:12:45.175Z,96116.00
2018-07-08T00:13:17.192Z,96113.00
2018-07-08T00:13:49.196Z,96112.00
2018-07-08T00:14:21.223Z,96112.00
2018-07-08T00:14:53.276Z,96111.00
2018-07-08T00:15:25.290Z,96111.00
2018-07-08T00:15:57.313Z,96113.00
2018-07-08T00:16:29.340Z,96112.00
2018-07-08T00:17:01.365Z,96114.00
2018-07-08T00:17:33.410Z,96111.00
2018-07-08T00:18:05.416Z,96110.00
2018-07-08T00:18:37.440Z,96111.00
2018-07-08T00:19:09.470Z,96114.00
2018-07-08T00:19:41.495Z,96114.00
2018-07-08T00:20:13.532Z,96113.00
2018-07-08T00:20:45.548Z,96115.00
2018-07-08T00:21:17.593Z,96117.00
2018-07-08T00:21:49.604Z,96109.00
2018-07-08T00:22:21.619Z,96115.00
2018-07-08T00:22:53.638Z,96111.00
2018-07-08T00:23:25.767Z,96111.00
2018-07-08T00:23:57.777Z,96114.00
2018-07-08T00:24:29.781Z,96118.00
2018-07-08T00:25:01.830Z,96116.00
2018-07-08T00:25:33.850Z,96119.00
2018-07-08T00:26:05.859Z,96116.00
2018-07-08T00:26:37.872Z,96118.00
2018-07-08T00:27:09.878Z,96119.00
2018-07-08T00:27:41.903Z,96119.00
2018-07-08T00:28:13.917Z,96113.00
2018-07-08T00:28:45.930Z,96117.00
2018-07-08T00:29:17.940Z,96110.00
2018-07-08T00:29:49.972Z,96110.00
2018-07-08T00:30:21.999Z,96108.00
2018-07-08T00:30:54.018Z,96113.00
2018-07-08T00:31:26.041Z,96109.00
2018-07-08T00:31:58.441Z,96107.00
2018-07-08T00:32:30.388Z,96108.00
2018-07-08T00:33:02.408Z,96110.00
2018-07-08T00:33:34.423Z,96109.00
2018-07-08T00:34:06.468Z,96109.00
2018-07-08T00:34:38.451Z,96107.00
2018-07-08T00:35:10.466Z,96108.00
2018-07-08T00:35:42.490Z,96107.00
2018-07-08T00:36:14.490Z,96103.00
2018-07-08T00:36:46.522Z,96104.00
2018-07-08T00:37:18.531Z,96100.00
2018-07-08T00:37:50.561Z,96103.00
2018-07-08T00:38:22.565Z,96099.00
2018-07-08T00:38:54.591Z,96106.00
2018-07-08T00:39:26.618Z,96104.00
2018-07-08T00:39:58.750Z,96100.00
2018-07-08T00:40:30.660Z,96105.00
2018-07-08T00:41:02.699Z,96099.00
2018-07-08T00:41:34.711Z,96102.00
2018-07-08T00:42:06.753Z,96100.00
2018-07-08T00:42:38.795Z,96099.00
2018-07-08T00:43:10.828Z,96106.00
2018-07-08T00:43:42.863Z,96106.00
2018-07-08T00:44:14.887Z,96106.00
2018-07-08T00:44:46.968Z,96100.00
2018-07-08T00:45:18.951Z,96103.00
2018-07-08T00:45:50.962Z,96100.00
2018-07-08T00:46:22.982Z,96101.00
2018-07-08T00:46:55.076Z,96098.00
2018-07-08T00:47:27.062Z,96095.00
2018-07-08T00:47:59.098Z,96099.00
2018-07-08T00:48:31.083Z,96099.00
2018-07-08T00:49:03.120Z,96098.00
2018-07-08T00:49:35.144Z,96096.00
2018-07-08T00:50:07.170Z,96098.00
2018-07-08T00:50:39.188Z,96099.00
2018-07-08T00:51:11.202Z,96102.00
2018-07-08T00:51:43.236Z,96105.00
2018-07-08T00:52:15.251Z,96099.00
2018-07-08T00:52:47.272Z,96102.00
2018-07-08T00:53:19.295Z,96101.00
2018-07-08T00:53:51.338Z,96101.00
2018-07-08T00:54:23.336Z,96096.00
2018-07-08T00:54:55.371Z,96095.00
2018-07-08T00:55:27.398Z,96099.00
2018-07-08T00:55:59.414Z,96093.00
2018-07-08T00:56:31.439Z,96098.00
2018-07-08T00:57:03.474Z,96097.00
2018-07-08T00:57:35.497Z,96096.00
2018-07-08T00:58:07.529Z,96097.00
2018-07-08T00:58:39.550Z,96097.00
2018-07-08T00:59:11.585Z,96096.00
2018-07-08T00:59:43.594Z,96099.00
2018-07-08T01:00:15.623Z,96096.00
2018-07-08T01:00:47.646Z,96096.00
2018-07-08T01:01:19.675Z,96093.00
2018-07-08T01:01:51.693Z,96098.00
2018-07-08T01:02:23.736Z,96095.00
2018-07-08T01:02:55.776Z,96101.00
2018-07-08T01:03:27.786Z,96094.00
2018-07-08T01:03:59.807Z,96094.00
2018-07-08T01:04:31.839Z,96100.00
2018-07-08T01:05:03.856Z,96098.00
2018-07-08T01:05:35.884Z,96102.00
2018-07-08T01:06:07.901Z,96098.00
2018-07-08T01:06:39.938Z,96098.00
2018-07-08T01:07:12.037Z,96100.00
2018-07-08T01:07:44.026Z,96096.00
2018-07-08T01:08:16.046Z,96095.00
2018-07-08T01:08:48.122Z,96097.00
2018-07-08T01:09:20.095Z,96098.00
2018-07-08T01:09:52.112Z,96097.00
2018-07-08T01:10:24.128Z,96099.00
2018-07-08T01:10:56.155Z,96096.00
2018-07-08T01:11:28.244Z,96095.00
2018-07-08T01:12:00.264Z,96098.00
2018-07-08T01:12:32.291Z,96096.00
2018-07-08T01:13:04.297Z,96094.00
2018-07-08T01:13:36.315Z,96098.00
2018-07-08T01:14:08.327Z,96098.00
2018-07-08T01:14:40.346Z,96101.00
2018-07-08T01:15:12.385Z,96099.00
2018-07-08T01:15:44.421Z,96093.00
2018-07-08T01:16:16.434Z,96093.00
2018-07-08T01:16:48.447Z,96098.00
2018-07-08T01:17:20.469Z,96098.00
2018-07-08T01:17:52.510Z,96096.00
2018-07-08T01:18:24.520Z,96097.00
2018-07-08T01:18:56.531Z,96097.00
2018-07-08T01:19:28.573Z,96098.00
2018-07-08T01:20:00.598Z,96098.00
2018-07-08T01:20:32.626Z,96097.00
2018-07-08T01:21:04.661Z,96101.00
2018-07-08T01:21:36.705Z,96102.00
2018-07-08T01:22:08.715Z,96100.00
2018-07-08T01:22:40.728Z,96101.00
2018-07-08T01:23:12.783Z,96090.00
2018-07-08T01:23:44.837Z,96096.00
2018-07-08T01:24:16.858Z,96097.00
2018-07-08T01:24:48.867Z,96091.00
2018-07-08T01:25:20.962Z,96091.00
2018-07-08T01:25:52.978Z,96092.00
2018-07-08T01:26:24.990Z,96094.00
2018-07-08T01:26:57.044Z,96093.00
2018-07-08T01:27:29.116Z,96093.00
2018-07-08T01:28:01.172Z,96091.00
2018-07-08T01:28:33.235Z,96086.00
2018-07-08T01:29:05.265Z,96092.00
2018-07-08T01:29:37.266Z,96092.00
2018-07-08T01:30:09.287Z,96091.00
2018-07-08T01:30:41.338Z,96095.00
2018-07-08T01:31:13.344Z,96094.00
2018-07-08T01:31:45.382Z,96093.00
2018-07-08T01:32:17.402Z,96089.00
2018-07-08T01:32:49.544Z,96095.00
2018-07-08T01:33:21.567Z,96099.00
2018-07-08T01:33:53.587Z,96093.00
2018-07-08T01:34:25.607Z,96096.00
2018-07-08T01:34:57.628Z,96096.00
2018-07-08T01:35:29.758Z,96093.00
2018-07-08T01:36:01.769Z,96096.00
2018-07-08T01:36:33.775Z,96093.00
2018-07-08T01:37:05.787Z,96094.00
2018-07-08T01:37:37.916Z,96093.00
2018-07-08T01:38:09.923Z,96098.00
2018-07-08T01:38:41.944Z,96094.00
2018-07-08T01:39:13.946Z,96092.00
2018-07-08T01:39:46.020Z,96094.00
2018-07-08T01:40:18.034Z,96099.00
2018-07-08T01:40:50.059Z,96096.00
2018-07-08T01:41:22.090Z,96094.00
2018-07-08T01:41:54.082Z,96092.00
2018-07-08T01:42:26.098Z,96094.00
2018-07-08T01:42:58.116Z,96095.00
2018-07-08T01:43:30.141Z,96095.00
2018-07-08T01:44:02.169Z,96093.00
2018-07-08T01:44:34.187Z,96096.00
2018-07-08T01:45:06.194Z,96094.00
2018-07-08T01:45:38.244Z,96093.00
2018-07-08T01:46:10.289Z,96097.00
2018-07-08T01:46:42.308Z,96099.00
2018-07-08T01:47:14.312Z,96094.00
2018-07-08T01:47:46.335Z,96095.00
2018-07-08T01:48:18.376Z,96093.00
2018-07-08T01:48:50.429Z,96094.00
2018-07-08T01:49:22.439Z,96089.00
2018-07-08T01:49:54.454Z,96089.00
2018-07-08T01:50:26.527Z,96087.00
2018-07-08T01:50:58.535Z,96085.00
2018-07-08T01:51:30.571Z,96088.00
2018-07-08T01:52:02.606Z,96088.00
2018-07-08T01:52:34.613Z,96080.00
2018-07-08T01:53:06.619Z,96085.00
2018-07-08T01:53:38.630Z,96089.00
2018-07-08T01:54:10.642Z,96085.00
2018-07-08T01:54:42.689Z,96091.00
2018-07-08T01:55:14.708Z,96088.00
2018-07-08T01:55:46.732Z,96085.00
2018-07-08T01:56:18.754Z,96088.00
2018-07-08T01:56:50.795Z,96089.00
2018-07-08T01:57:22.805Z,96090.00
2018-07-08T01:57:54.822Z,96083.00
2018-07-08T01:58:26.839Z,96083.00
2018-07-08T01:58:58.853Z,96091.00
2018-07-08T01:59:30.871Z,96088.00
2018-07-08T02:00:02.908Z,96086.00
2018-07-08T02:00:34.920Z,96085.00
2018-07-08T02:01:06.965Z,96084.00
2018-07-08T02:01:38.994Z,96086.00
2018-07-08T02:02:11.011Z,96080.00
2018-07-08T02:02:43.036Z,96083.00
2018-07-08T02:03:15.070Z,96086.00
2018-07-08T02:03:47.091Z,96085.00
2018-07-08T02:04:19.114Z,96085.00
2018-07-08T02:04:51.145Z,96086.00
2018-07-08T02:05:23.186Z,96081.00
2018-07-08T02:05:55.198Z,96082.00
2018-07-08T02:06:27.219Z,96085.00
2018-07-08T02:06:59.251Z,96086.00
2018-07-08T02:07:31.282Z,96087.00
2018-07-08T02:08:03.409Z,96083.00
2018-07-08T02:08:35.426Z,96082.00
2018-07-08T02:09:07.842Z,96079.00
2018-07-08T02:09:39.722Z,96083.00
2018-07-08T02:10:11.730Z,96084.00
2018-07-08T02:10:43.782Z,96084.00
2018-07-08T02:11:15.824Z,96083.00
2018-07-08T02:11:47.843Z,96085.00
2018-07-08T02:12:19.850Z,96084.00
2018-07-08T02:12:51.893Z,96084.00
2018-07-08T02:13:23.897Z,96086.00
2018-07-08T02:13:55.913Z,96080.00
2018-07-08T02:14:27.927Z,96089.00
2018-07-08T02:14:59.958Z,96084.00
2018-07-08T02:15:31.958Z,96080.00
2018-07-08T02:16:04.028Z,96086.00
2018-07-08T02:16:36.026Z,96084.00
2018-07-08T02:17:08.051Z,96083.00
2018-07-08T02:17:40.062Z,96082.00
2018-07-08T02:18:12.082Z,96087.00
2018-07-08T02:18:44.094Z,96084.00
2018-07-08T02:19:16.113Z,96085.00
2018-07-08T02:19:48.111Z,96085.00
2018-07-08T02:20:20.125Z,96086.00
2018-07-08T02:20:52.149Z,96085.00
2018-07-08T02:21:24.183Z,96085.00
2018-07-08T02:21:56.210Z,96080.00
2018-07-08T02:22:28.226Z,96081.00
2018-07-08T02:23:00.249Z,96083.00
2018-07-08T02:23:32.267Z,96086.00
2018-07-08T02:24:04.275Z,96081.00
2018-07-08T02:24:36.302Z,96085.00
2018-07-08T02:25:08.341Z,96084.00
2018-07-08T02:25:40.372Z,96083.00
2018-07-08T02:26:12.392Z,96085.00
2018-07-08T02:26:44.430Z,96086.00
2018-07-08T02:27:16.464Z,96080.00
2018-07-08T02:27:48.477Z,96082.00
2018-07-08T02:28:20.487Z,96081.00
2018-07-08T02:28:52.497Z,96078.00
2018-07-08T02:29:24.558Z,96079.00
2018-07-08T02:29:56.680Z,96084.00
2018-07-08T02:30:28.739Z,96080.00
2018-07-08T02:31:00.759Z,96081.00
2018-07-08T02:31:32.775Z,96079.00
2018-07-08T02:32:04.831Z,96077.00
2018-07-08T02:32:36.860Z,96079.00
2018-07-08T02:33:08.878Z,96082.00
2018-07-08T02:33:40.890Z,96083.00
2018-07-08T02:34:12.938Z,96082.00
2018-07-08T02:34:44.957Z,96083.00
2018-07-08T02:35:16.992Z,96086.00
2018-07-08T02:35:48.995Z,96074.00
2018-07-08T02:36:21.047Z,96080.00
2018-07-08T02:36:53.084Z,96083.00
2018-07-08T02:37:25.099Z,96082.00
2018-07-08T02:37:57.124Z,96085.00
2018-07-08T02:38:29.151Z,96078.00
2018-07-08T02:39:01.174Z,96083.00
2018-07-08T02:39:33.210Z,96080.00
2018-07-08T02:40:05.231Z,96081.00
2018-07-08T02:40:37.250Z,96080.00
2018-07-08T02:41:09.274Z,96083.00
2018-07-08T02:41:41.289Z,96084.00
2018-07-08T02:42:13.306Z,96085.00
2018-07-08T02:42:45.364Z,96081.00
2018-07-08T02:43:17.372Z,96082.00
2018-07-08T02:43:49.403Z,96083.00
2018-07-08T02:44:21.430Z,96087.00
2018-07-08T02:44:53.470Z,96084.00
2018-07-08T02:45:25.511Z,96084.00
2018-07-08T02:45:57.532Z,96083.00
2018-07-08T02:46:29.563Z,96083.00
2018-07-08T02:47:01.594Z,96081.00
2018-07-08T02:47:33.598Z,96087.00
2018-07-08T02:48:05.619Z,96084.00
2018-07-08T02:48:37.644Z,96084.00
2018-07-08T02:49:09.664Z,96086.00
2018-07-08T02:49:41.679Z,96079.00
2018-07-08T02:50:13.715Z,96081.00
2018-07-08T02:50:45.751Z,96081.00
2018-07-08T02:51:17.782Z,96081.00
2018-07-08T02:51:49.777Z,96080.00
2018-07-08T02:52:21.817Z,96078.00
2018-07-08T02:52:53.838Z,96079.00
2018-07-08T02:53:25.923Z,96085.00
2018-07-08T02:53:57.946Z,96086.00
2018-07-08T02:54:29.947Z,96084.00
2018-07-08T02:55:01.968Z,96084.00
2018-07-08T02:55:34.013Z,96086.00
2018-07-08T02:56:06.019Z,96088.00
2018-07-08T02:56:38.053Z,96087.00
2018-07-08T02:57:10.090Z,96086.00
2018-07-08T02:57:42.095Z,96085.00
2018-07-08T02:58:14.106Z,96088.00
2018-07-08T02:58:46.115Z,96081.00
2018-07-08T02:59:18.158Z,96087.00
2018-07-08T02:59:50.164Z,96086.00
2018-07-08T03:00:22.181Z,96088.00
2018-07-08T03:00:54.262Z,96087.00
2018-07-08T03:01:26.442Z,96089.00
2018-07-08T03:01:58.462Z,96082.00
2018-07-08T03:02:30.551Z,96082.00
2018-07-08T03:03:02.556Z,96083.00
2018-07-08T03:03:34.580Z,96082.00
2018-07-08T03:04:06.599Z,96083.00
2018-07-08T03:04:38.650Z,96081.00
2018-07-08T03:05:10.663Z,96082.00
2018-07-08T03:05:42.691Z,96085.00
2018-07-08T03:06:14.706Z,96083.00
2018-07-08T03:06:46.738Z,96083.00
2018-07-08T03:07:18.774Z,96079.00
2018-07-08T03:07:50.822Z,96083.00
2018-07-08T03:08:22.883Z,96082.00
2018-07-08T03:08:54.898Z,96084.00
2018-07-08T03:09:26.923Z,96080.00
2018-07-08T03:09:58.943Z,96085.00
2018-07-08T03:10:30.986Z,96084.00
2018-07-08T03:11:02.975Z,96085.00
2018-07-08T03:11:34.993Z,96088.00
2018-07-08T03:12:07.002Z,96088.00
2018-07-08T03:12:39.026Z,96087.00
2018-07-08T03:13:11.049Z,96089.00
2018-07-08T03:13:43.065Z,96090.00
2018-07-08T03:14:15.074Z,96083.00
2018-07-08T03:14:47.080Z,96084.00
2018-07-08T03:15:19.103Z,96083.00
2018-07-08T03:15:51.110Z,96083.00
2018-07-08T03:16:23.150Z,96085.00
2018-07-08T03:16:55.136Z,96084.00
2018-07-08T03:17:27.280Z,96086.00
2018-07-08T03:17:59.289Z,96087.00
2018-07-08T03:18:31.298Z,96086.00
2018-07-08T03:19:03.327Z,96089.00
2018-07-08T03:19:35.370Z,96089.00
2018-07-08T03:20:07.544Z,96091.00
2018-07-08T03:20:39.551Z,96088.00
2018-07-08T03:21:11.582Z,96088.00
2018-07-08T03:21:43.595Z,96087.00
2018-07-08T03:22:15.602Z,96088.00
2018-07-08T03:22:47.613Z,96089.00
2018-07-08T03:23:19.615Z,96087.00
2018-07-08T03:23:51.652Z,96086.00
2018-07-08T03:24:23.666Z,96088.00
2018-07-08T03:24:55.670Z,96086.00
2018-07-08T03:25:27.718Z,96091.00
2018-07-08T03:25:59.743Z,96089.00
2018-07-08T03:26:31.766Z,96087.00
2018-07-08T03:27:03.774Z,96088.00
2018-07-08T03:27:35.825Z,96087.00
2018-07-08T03:28:07.818Z,96087.00
2018-07-08T03:28:39.864Z,96090.00
2018-07-08T03:29:11.877Z,96079.00
2018-07-08T03:29:43.903Z,96090.00
2018-07-08T03:30:15.930Z,96090.00
2018-07-08T03:30:47.942Z,96089.00
2018-07-08T03:31:19.965Z,96090.00
2018-07-08T03:31:52.032Z,96088.00
2018-07-08T03:32:24.021Z,96090.00
2018-07-08T03:32:56.052Z,96085.00
2018-07-08T03:33:28.115Z,96086.00
2018-07-08T03:34:00.112Z,96087.00
2018-07-08T03:34:32.132Z,96088.00
2018-07-08T03:35:04.143Z,96087.00
2018-07-08T03:35:36.163Z,96090.00
2018-07-08T03:36:08.203Z,96088.00
2018-07-08T03:36:40.214Z,96090.00
2018-07-08T03:37:12.233Z,96088.00
2018-07-08T03:37:44.264Z,96087.00
2018-07-08T03:38:16.279Z,96089.00
2018-07-08T03:38:48.304Z,96090.00
2018-07-08T03:39:20.323Z,96093.00
2018-07-08T03:39:52.341Z,96092.00
2018-07-08T03:40:24.352Z,96086.00
2018-07-08T03:40:56.387Z,96088.00
2018-07-08T03:41:28.410Z,96091.00
2018-07-08T03:42:00.426Z,96093.00
2018-07-08T03:42:32.463Z,96087.00
2018-07-08T03:43:04.490Z,96089.00
2018-07-08T03:43:36.503Z,96087.00
2018-07-08T03:44:08.533Z,96093.00
2018-07-08T03:44:40.569Z,96085.00
2018-07-08T03:45:12.595Z,96089.00
2018-07-08T03:45:44.609Z,96090.00
2018-07-08T03:46:16.651Z,96087.00
2018-07-08T03:46:48.669Z,96088.00
2018-07-08T03:47:20.695Z,96087.00
2018-07-08T03:47:52.713Z,96090.00
2018-07-08T03:48:24.740Z,96091.00
2018-07-08T03:48:56.746Z,96085.00
2018-07-08T03:49:28.766Z,96090.00
2018-07-08T03:50:00.787Z,96091.00
2018-07-08T03:50:32.829Z,96085.00
2018-07-08T03:51:04.826Z,96087.00
2018-07-08T03:51:36.857Z,96083.00
2018-07-08T03:52:08.861Z,96084.00
2018-07-08T03:52:40.910Z,96087.00
2018-07-08T03:53:12.929Z,96090.00
2018-07-08T03:53:44.946Z,96089.00
2018-07-08T03:54:16.942Z,96087.00
2018-07-08T03:54:48.981Z,96088.00
2018-07-08T03:55:20.970Z,96090.00
2018-07-08T03:55:53.001Z,96092.00
2018-07-08T03:56:25.012Z,96090.00
2018-07-08T03:56:57.027Z,96092.00
2018-07-08T03:57:29.060Z,96093.00
2018-07-08T03:58:01.072Z,96092.00
2018-07-08T03:58:33.087Z,96092.00
2018-07-08T03:59:05.105Z,96095.00
2018-07-08T03:59:37.123Z,96096.00
2018-07-08T04:00:09.133Z,96095.00
2018-07-08T04:00:41.164Z,96092.00
2018-07-08T04:01:13.207Z,96092.00
2018-07-08T04:01:45.225Z,96096.00
2018-07-08T04:02:17.242Z,96094.00
2018-07-08T04:02:49.311Z,96091.00
2018-07-08T04:03:21.337Z,96094.00
2018-07-08T04:03:53.362Z,96091.00
2018-07-08T04:04:25.426Z,96096.00
2018-07-08T04:04:57.437Z,96097.00
2018-07-08T04:05:29.469Z,96094.00
2018-07-08T04:06:01.478Z,96091.00
2018-07-08T04:06:33.493Z,96094.00
2018-07-08T04:07:05.522Z,96093.00
2018-07-08T04:07:37.545Z,96091.00
2018-07-08T04:08:09.575Z,96096.00
2018-07-08T04:08:41.596Z,96095.00
2018-07-08T04:09:13.610Z,96094.00
2018-07-08T04:09:45.647Z,96096.00
2018-07-08T04:10:17.678Z,96095.00
2018-07-08T04:10:49.705Z,96097.00
2018-07-08T04:11:21.712Z,96099.00
2018-07-08T04:11:53.743Z,96103.00
2018-07-08T04:12:25.771Z,96100.00
2018-07-08T04:12:57.802Z,96091.00
2018-07-08T04:13:29.823Z,96094.00
2018-07-08T04:14:01.846Z,96094.00
2018-07-08T04:14:33.881Z,96097.00
2018-07-08T04:15:05.889Z,96095.00
2018-07-08T04:15:37.926Z,96095.00
2018-07-08T04:16:09.941Z,96095.00
2018-07-08T04:16:42.002Z,96095.00
2018-07-08T04:17:14.013Z,96095.00
2018-07-08T04:17:46.025Z,96091.00
2018-07-08T04:18:18.039Z,96095.00
2018-07-08T04:18:50.071Z,96094.00
2018-07-08T04:19:22.088Z,96094.00
2018-07-08T04:19:54.110Z,96093.00
2018-07-08T04:20:26.132Z,96095.00
2018-07-08T04:20:58.140Z,96093.00
2018-07-08T04:21:30.155Z,96093.00
2018-07-08T04:22:02.190Z,96092.00
2018-07-08T04:22:34.197Z,96094.00
2018-07-08T04:23:06.209Z,96092.00
2018-07-08T04:23:38.230Z,96092.00
2018-07-08T04:24:10.272Z,96092.00
2018-07-08T04:24:42.275Z,96097.00
2018-07-08T04:25:14.322Z,96092.00
2018-07-08T04:25:46.339Z,96098.00
2018-07-08T04:26:18.360Z,96092.00
2018-07-08T04:26:50.369Z,96093.00
2018-07-08T04:27:22.429Z,96093.00
2018-07-08T04:27:54.474Z,96098.00
2018-07-08T04:28:26.523Z,96096.00
2018-07-08T04:28:58.549Z,96093.00
2018-07-08T04:29:30.561Z,96095.00
2018-07-08T04:30:02.567Z,96091.00
2018-07-08T04:30:34.609Z,96090.00
2018-07-08T04:31:06.629Z,96091.00
2018-07-08T04:31:38.647Z,96090.00
2018-07-08T04:32:10.672Z,96096.00
2018-07-08T04:32:42.747Z,96097.00
2018-07-08T04:33:14.754Z,96095.00
2018-07-08T04:33:46.795Z,96094.00
2018-07-08T04:34:18.812Z,96092.00
2018-07-08T04:34:50.842Z,96098.00
2018-07-08T04:35:22.859Z,96096.00
2018-07-08T04:35:54.906Z,96104.00
2018-07-08T04:36:26.917Z,96100.00
2018-07-08T04:36:58.944Z,96097.00
2018-07-08T04:37:30.962Z,96096.00
2018-07-08T04:38:02.997Z,96095.00
2018-07-08T04:38:35.020Z,96096.00
2018-07-08T04:39:07.049Z,96094.00
2018-07-08T04:39:39.070Z,96101.00
2018-07-08T04:40:11.120Z,96092.00
2018-07-08T04:40:43.133Z,96097.00
2018-07-08T04:41:15.154Z,96098.00
2018-07-08T04:41:47.181Z,96097.00
2018-07-08T04:42:19.217Z,96093.00
2018-07-08T04:42:51.219Z,96099.00
2018-07-08T04:43:23.283Z,96100.00
2018-07-08T04:43:55.320Z,96099.00
2018-07-08T04:44:27.351Z,96099.00
2018-07-08T04:44:59.378Z,96098.00
2018-07-08T04:45:31.396Z,96099.00
2018-07-08T04:46:03.427Z,96098.00
2018-07-08T04:46:35.518Z,96090.00
2018-07-08T04:47:07.537Z,96094.00
2018-07-08T04:47:39.558Z,96094.00
2018-07-08T04:48:11.598Z,96098.00
2018-07-08T04:48:43.603Z,96096.00
2018-07-08T04:49:15.673Z,96097.00
2018-07-08T04:49:47.648Z,96092.00
2018-07-08T04:50:19.659Z,96099.00
2018-07-08T04:50:51.680Z,96102.00
2018-07-08T04:51:23.699Z,96097.00
2018-07-08T04:51:55.705Z,96098.00
2018-07-08T04:52:27.744Z,96092.00
2018-07-08T04:52:59.761Z,96095.00
2018-07-08T04:53:31.814Z,96100.00
2018-07-08T04:54:03.927Z,96100.00
2018-07-08T04:54:35.909Z,96098.00
2018-07-08T04:55:07.926Z,96100.00
2018-07-08T04:55:39.966Z,96103.00
2018-07-08T04:56:11.988Z,96104.00
2018-07-08T04:56:44.013Z,96102.00
2018-07-08T04:57:16.042Z,96103.00
2018-07-08T04:57:48.483Z,96106.00
2018-07-08T04:58:20.349Z,96104.00
2018-07-08T04:58:52.366Z,96106.00
2018-07-08T04:59:24.403Z,96100.00
2018-07-08T04:59:56.440Z,96107.00
2018-07-08T05:00:28.502Z,96103.00
2018-07-08T05:01:00.562Z,96106.00
2018-07-08T05:01:32.559Z,96105.00
2018-07-08T05:02:04.583Z,96104.00
2018-07-08T05:02:36.595Z,96107.00
2018-07-08T05:03:08.647Z,96104.00
2018-07-08T05:03:40.677Z,96104.00
2018-07-08T05:04:12.712Z,96107.00
2018-07-08T05:04:44.715Z,96104.00
2018-07-08T05:05:16.740Z,96104.00
2018-07-08T05:05:48.756Z,96106.00
2018-07-08T05:06:20.809Z,96106.00
2018-07-08T05:06:52.811Z,96105.00
2018-07-08T05:07:24.846Z,96102.00
2018-07-08T05:07:56.864Z,96105.00
2018-07-08T05:08:28.871Z,96100.00
2018-07-08T05:09:00.909Z,96103.00
2018-07-08T05:09:32.946Z,96108.00
2018-07-08T05:10:04.971Z,96108.00
2018-07-08T05:10:36.982Z,96108.00
2018-07-08T05:11:09.015Z,96108.00
2018-07-08T05:11:41.050Z,96110.00
2018-07-08T05:12:13.076Z,96112.00
2018-07-08T05:12:45.222Z,96112.00
2018-07-08T05:13:17.352Z,96107.00
2018-07-08T05:13:49.382Z,96110.00
2018-07-08T05:14:21.401Z,96116.00
2018-07-08T05:14:53.426Z,96109.00
2018-07-08T05:15:25.453Z,96107.00
2018-07-08T05:15:57.458Z,96109.00
2018-07-08T05:16:29.498Z,96106.00
2018-07-08T05:17:01.508Z,96110.00
2018-07-08T05:17:33.524Z,96116.00
2018-07-08T05:18:05.568Z,96113.00
2018-07-08T05:18:37.598Z,96115.00
2018-07-08T05:19:09.662Z,96115.00
2018-07-08T05:19:41.713Z,96112.00
2018-07-08T05:20:13.740Z,96111.00
2018-07-08T05:20:45.767Z,96111.00
2018-07-08T05:21:17.792Z,96112.00
2018-07-08T05:21:49.812Z,96109.00
2018-07-08T05:22:21.843Z,96108.00
2018-07-08T05:22:53.866Z,96109.00
2018-07-08T05:23:25.873Z,96110.00
2018-07-08T05:23:57.894Z,96112.00
2018-07-08T05:24:29.903Z,96112.00
2018-07-08T05:25:01.930Z,96114.00
2018-07-08T05:25:33.948Z,96111.00
2018-07-08T05:26:05.979Z,96108.00
2018-07-08T05:26:37.982Z,96111.00
2018-07-08T05:27:10.013Z,96116.00
2018-07-08T05:27:42.026Z,96112.00
2018-07-08T05:28:14.036Z,96114.00
2018-07-08T05:28:46.049Z,96108.00
2018-07-08T05:29:18.109Z,96112.00
2018-07-08T05:29:50.146Z,96112.00
2018-07-08T05:30:22.121Z,96112.00
2018-07-08T05:30:54.154Z,96113.00
2018-07-08T05:31:26.179Z,96110.00
2018-07-08T05:31:58.204Z,96114.00
2018-07-08T05:32:30.226Z,96106.00
2018-07-08T05:33:02.247Z,96112.00
2018-07-08T05:33:34.261Z,96108.00
2018-07-08T05:34:06.361Z,96110.00
2018-07-08T05:34:38.354Z,96110.00
2018-07-08T05:35:10.370Z,96109.00
2018-07-08T05:35:42.419Z,96110.00
2018-07-08T05:36:14.414Z,96113.00
2018-07-08T05:36:46.453Z,96114.00
2018-07-08T05:37:18.472Z,96111.00
2018-07-08T05:37:50.492Z,96119.00
2018-07-08T05:38:22.507Z,96111.00
2018-07-08T05:38:54.574Z,96113.00
2018-07-08T05:39:26.597Z,96115.00
2018-07-08T05:39:58.615Z,96111.00
2018-07-08T05:40:30.630Z,96111.00
2018-07-08T05:41:02.649Z,96106.00
2018-07-08T05:41:34.681Z,96111.00
2018-07-08T05:42:06.734Z,96113.00
2018-07-08T05:42:38.763Z,96111.00
2018-07-08T05:43:10.778Z,96111.00
2018-07-08T05:43:42.816Z,96108.00
2018-07-08T05:44:14.858Z,96113.00
2018-07-08T05:44:46.924Z,96112.00
2018-07-08T05:45:18.969Z,96114.00
2018-07-08T05:45:50.990Z,96118.00
2018-07-08T05:46:22.998Z,96114.00
2018-07-08T05:46:55.010Z,96120.00
2018-07-08T05:47:27.028Z,96110.00
2018-07-08T05:47:59.057Z,96114.00
2018-07-08T05:48:31.064Z,96116.00
2018-07-08T05:49:03.079Z,96112.00
2018-07-08T05:49:35.129Z,96112.00
2018-07-08T05:50:07.163Z,96115.00
2018-07-08T05:50:39.233Z,96120.00
2018-07-08T05:51:11.175Z,96115.00
2018-07-08T05:51:43.224Z,96115.00
2018-07-08T05:52:15.229Z,96115.00
2018-07-08T05:52:47.256Z,96113.00
2018-07-08T05:53:19.277Z,96111.00
2018-07-08T05:53:51.306Z,96115.00
2018-07-08T05:54:23.347Z,96113.00
2018-07-08T05:54:55.359Z,96110.00
2018-07-08T05:55:27.380Z,96111.00
2018-07-08T05:55:59.403Z,96114.00
2018-07-08T05:56:31.418Z,96114.00
2018-07-08T05:57:03.419Z,96113.00
2018-07-08T05:57:35.462Z,96115.00
2018-07-08T05:58:07.476Z,96114.00
2018-07-08T05:58:39.531Z,96111.00
2018-07-08T05:59:11.556Z,96113.00
2018-07-08T05:59:43.560Z,96109.00
2018-07-08T06:00:15.629Z,96109.00
2018-07-08T06:00:47.646Z,96106.00
2018-07-08T06:01:19.671Z,96111.00
2018-07-08T06:01:51.671Z,96111.00
2018-07-08T06:02:23.682Z,96112.00
2018-07-08T06:02:55.739Z,96108.00
2018-07-08T06:03:27.772Z,96108.00
2018-07-08T06:03:59.799Z,96106.00
2018-07-08T06:04:31.827Z,96104.00
2018-07-08T06:05:03.834Z,96107.00
2018-07-08T06:05:35.875Z,96101.00
2018-07-08T06:06:07.880Z,96103.00
2018-07-08T06:06:39.981Z,96103.00
2018-07-08T06:07:12.048Z,96100.00
2018-07-08T06:07:44.454Z,96108.00
2018-07-08T06:08:16.351Z,96104.00
2018-07-08T06:08:48.387Z,96103.00
2018-07-08T06:09:20.413Z,96101.00
2018-07-08T06:09:52.432Z,96103.00
2018-07-08T06:10:24.462Z,96104.00
2018-07-08T06:10:56.878Z,96107.00
2018-07-08T06:11:28.840Z,96102.00
2018-07-08T06:12:00.853Z,96105.00
2018-07-08T06:12:32.871Z,96101.00
2018-07-08T06:13:04.897Z,96099.00
2018-07-08T06:13:36.927Z,96108.00
2018-07-08T06:14:08.942Z,96101.00
2018-07-08T06:14:40.967Z,96106.00
2018-07-08T06:15:13.016Z,96103.00
2018-07-08T06:15:45.053Z,96103.00
2018-07-08T06:16:17.043Z,96102.00